sensor_id;sensor_type;location;lat;lon;timestamp;P1;durP1;ratioP1;P2;durP2;ratioP2
16288;SDS011;26089;43.538;5.250;2022-10-31T00:00:07;22.33;;;14.00;;
16288;SDS011;26089;43.538;5.250;2022-10-31T00:02:36;20.50;;;12.97;;
16288;SDS011;26089;43.538;5.250;2022-10-31T00:05:05;24.23;;;13.00;;
16288;SDS011;26089;43.538;5.250;2022-10-31T00:07:32;23.73;;;13.13;;
16288;SDS011;26089;43.538;5.250;2022-10-31T00:09:59;22.73;;;12.93;;
16288;SDS011;26089;43.538;5.250;2022-10-31T00:12:26;24.50;;;12.67;;
16288;SDS011;26089;43.538;5.250;2022-10-31T00:14:53;21.90;;;12.70;;
16288;SDS011;26089;43.538;5.250;2022-10-31T00:17:20;20.10;;;11.73;;
16288;SDS011;26089;43.538;5.250;2022-10-31T00:19:47;20.50;;;11.77;;
16288;SDS011;26089;43.538;5.250;2022-10-31T00:22:16;22.47;;;11.83;;
16288;SDS011;26089;43.538;5.250;2022-10-31T00:24:42;20.83;;;11.77;;
16288;SDS011;26089;43.538;5.250;2022-10-31T00:27:09;25.30;;;12.60;;
16288;SDS011;26089;43.538;5.250;2022-10-31T00:29:36;20.73;;;12.70;;
16288;SDS011;26089;43.538;5.250;2022-10-31T00:32:04;20.13;;;12.03;;
16288;SDS011;26089;43.538;5.250;2022-10-31T00:34:31;22.20;;;12.37;;
16288;SDS011;26089;43.538;5.250;2022-10-31T00:36:58;19.70;;;11.57;;
16288;SDS011;26089;43.538;5.250;2022-10-31T00:39:26;27.13;;;12.50;;
16288;SDS011;26089;43.538;5.250;2022-10-31T00:41:53;22.83;;;12.63;;
16288;SDS011;26089;43.538;5.250;2022-10-31T00:44:20;22.23;;;12.30;;
16288;SDS011;26089;43.538;5.250;2022-10-31T00:46:47;20.93;;;12.30;;
16288;SDS011;26089;43.538;5.250;2022-10-31T00:49:14;18.93;;;12.40;;
16288;SDS011;26089;43.538;5.250;2022-10-31T00:51:41;24.93;;;13.37;;
16288;SDS011;26089;43.538;5.250;2022-10-31T00:54:08;23.67;;;12.97;;
16288;SDS011;26089;43.538;5.250;2022-10-31T00:56:36;26.47;;;12.97;;
16288;SDS011;26089;43.538;5.250;2022-10-31T00:59:03;25.97;;;14.33;;
16288;SDS011;26089;43.538;5.250;2022-10-31T01:01:30;21.73;;;12.27;;
16288;SDS011;26089;43.538;5.250;2022-10-31T01:03:57;27.17;;;13.67;;
16288;SDS011;26089;43.538;5.250;2022-10-31T01:06:24;25.20;;;12.13;;
16288;SDS011;26089;43.538;5.250;2022-10-31T01:08:51;30.73;;;13.80;;
16288;SDS011;26089;43.538;5.250;2022-10-31T01:11:19;25.13;;;13.70;;
16288;SDS011;26089;43.538;5.250;2022-10-31T01:13:49;23.10;;;12.33;;
16288;SDS011;26089;43.538;5.250;2022-10-31T01:16:17;17.03;;;12.30;;
16288;SDS011;26089;43.538;5.250;2022-10-31T01:18:46;22.23;;;12.83;;
16288;SDS011;26089;43.538;5.250;2022-10-31T01:21:14;28.13;;;12.40;;
16288;SDS011;26089;43.538;5.250;2022-10-31T01:23:43;24.33;;;12.70;;
16288;SDS011;26089;43.538;5.250;2022-10-31T01:26:11;21.63;;;12.37;;
16288;SDS011;26089;43.538;5.250;2022-10-31T01:28:42;19.77;;;11.47;;
16288;SDS011;26089;43.538;5.250;2022-10-31T01:31:12;17.90;;;11.70;;
16288;SDS011;26089;43.538;5.250;2022-10-31T01:33:40;21.83;;;11.60;;
16288;SDS011;26089;43.538;5.250;2022-10-31T01:36:11;20.13;;;11.27;;
16288;SDS011;26089;43.538;5.250;2022-10-31T01:38:39;17.43;;;11.50;;
16288;SDS011;26089;43.538;5.250;2022-10-31T01:41:06;16.77;;;10.37;;
16288;SDS011;26089;43.538;5.250;2022-10-31T01:43:42;21.47;;;10.90;;
16288;SDS011;26089;43.538;5.250;2022-10-31T01:46:11;17.90;;;10.63;;
16288;SDS011;26089;43.538;5.250;2022-10-31T01:48:39;21.97;;;10.73;;
16288;SDS011;26089;43.538;5.250;2022-10-31T01:51:08;21.57;;;11.63;;
16288;SDS011;26089;43.538;5.250;2022-10-31T01:53:38;24.60;;;10.23;;
16288;SDS011;26089;43.538;5.250;2022-10-31T01:56:06;20.67;;;10.73;;
16288;SDS011;26089;43.538;5.250;2022-10-31T01:58:34;20.33;;;11.17;;
16288;SDS011;26089;43.538;5.250;2022-10-31T02:01:02;22.57;;;11.23;;
16288;SDS011;26089;43.538;5.250;2022-10-31T02:03:31;21.93;;;11.13;;
16288;SDS011;26089;43.538;5.250;2022-10-31T02:05:59;17.33;;;10.47;;
16288;SDS011;26089;43.538;5.250;2022-10-31T02:08:27;17.07;;;11.53;;
16288;SDS011;26089;43.538;5.250;2022-10-31T02:10:56;19.67;;;10.83;;
16288;SDS011;26089;43.538;5.250;2022-10-31T02:13:24;20.70;;;11.53;;
16288;SDS011;26089;43.538;5.250;2022-10-31T02:15:52;22.07;;;11.17;;
16288;SDS011;26089;43.538;5.250;2022-10-31T02:18:21;17.60;;;10.13;;
16288;SDS011;26089;43.538;5.250;2022-10-31T02:20:53;15.87;;;9.73;;
16288;SDS011;26089;43.538;5.250;2022-10-31T02:29:48;13.70;;;8.83;;
16288;SDS011;26089;43.538;5.250;2022-10-31T02:32:32;19.27;;;10.37;;
16288;SDS011;26089;43.538;5.250;2022-10-31T02:35:30;18.17;;;10.20;;
16288;SDS011;26089;43.538;5.250;2022-10-31T02:38:10;16.33;;;9.60;;
16288;SDS011;26089;43.538;5.250;2022-10-31T02:40:48;19.77;;;10.23;;
16288;SDS011;26089;43.538;5.250;2022-10-31T02:43:26;18.60;;;9.93;;
16288;SDS011;26089;43.538;5.250;2022-10-31T02:45:58;21.20;;;10.83;;
16288;SDS011;26089;43.538;5.250;2022-10-31T02:48:31;18.17;;;10.80;;
16288;SDS011;26089;43.538;5.250;2022-10-31T02:51:02;21.53;;;10.20;;
16288;SDS011;26089;43.538;5.250;2022-10-31T02:53:31;15.47;;;9.00;;
16288;SDS011;26089;43.538;5.250;2022-10-31T02:56:00;14.80;;;9.90;;
16288;SDS011;26089;43.538;5.250;2022-10-31T02:58:31;21.83;;;10.10;;
16288;SDS011;26089;43.538;5.250;2022-10-31T03:01:26;21.80;;;10.80;;
16288;SDS011;26089;43.538;5.250;2022-10-31T03:07:19;19.57;;;10.20;;
16288;SDS011;26089;43.538;5.250;2022-10-31T03:09:53;17.87;;;10.93;;
16288;SDS011;26089;43.538;5.250;2022-10-31T03:12:28;19.70;;;11.27;;
16288;SDS011;26089;43.538;5.250;2022-10-31T03:14:59;17.13;;;10.67;;
16288;SDS011;26089;43.538;5.250;2022-10-31T03:17:36;16.30;;;10.20;;
16288;SDS011;26089;43.538;5.250;2022-10-31T03:20:07;15.53;;;10.07;;
16288;SDS011;26089;43.538;5.250;2022-10-31T03:22:36;19.47;;;11.07;;
16288;SDS011;26089;43.538;5.250;2022-10-31T03:25:05;16.33;;;9.87;;
16288;SDS011;26089;43.538;5.250;2022-10-31T03:27:35;15.63;;;9.47;;
16288;SDS011;26089;43.538;5.250;2022-10-31T03:30:04;22.33;;;10.10;;
16288;SDS011;26089;43.538;5.250;2022-10-31T03:32:34;17.50;;;9.30;;
16288;SDS011;26089;43.538;5.250;2022-10-31T03:35:08;19.53;;;10.67;;
16288;SDS011;26089;43.538;5.250;2022-10-31T03:37:36;19.93;;;10.00;;
16288;SDS011;26089;43.538;5.250;2022-10-31T03:40:05;17.77;;;10.07;;
16288;SDS011;26089;43.538;5.250;2022-10-31T03:42:36;15.23;;;9.77;;
16288;SDS011;26089;43.538;5.250;2022-10-31T03:45:08;16.10;;;9.07;;
16288;SDS011;26089;43.538;5.250;2022-10-31T03:47:39;15.97;;;9.43;;
16288;SDS011;26089;43.538;5.250;2022-10-31T03:50:09;18.93;;;9.90;;
16288;SDS011;26089;43.538;5.250;2022-10-31T03:52:41;19.73;;;9.80;;
16288;SDS011;26089;43.538;5.250;2022-10-31T03:55:16;19.03;;;8.73;;
16288;SDS011;26089;43.538;5.250;2022-10-31T03:57:46;14.57;;;10.20;;
16288;SDS011;26089;43.538;5.250;2022-10-31T04:00:19;17.00;;;9.53;;
16288;SDS011;26089;43.538;5.250;2022-10-31T04:02:47;16.23;;;10.17;;
16288;SDS011;26089;43.538;5.250;2022-10-31T04:05:21;15.43;;;9.27;;
16288;SDS011;26089;43.538;5.250;2022-10-31T04:07:49;19.23;;;9.90;;
16288;SDS011;26089;43.538;5.250;2022-10-31T04:10:21;13.10;;;9.00;;
16288;SDS011;26089;43.538;5.250;2022-10-31T04:12:51;14.57;;;9.23;;
16288;SDS011;26089;43.538;5.250;2022-10-31T04:15:22;17.90;;;9.73;;
16288;SDS011;26089;43.538;5.250;2022-10-31T04:17:51;17.87;;;9.40;;
16288;SDS011;26089;43.538;5.250;2022-10-31T04:20:30;13.73;;;8.87;;
16288;SDS011;26089;43.538;5.250;2022-10-31T04:22:57;13.80;;;8.70;;
16288;SDS011;26089;43.538;5.250;2022-10-31T04:25:25;17.77;;;9.80;;
16288;SDS011;26089;43.538;5.250;2022-10-31T04:27:52;15.63;;;8.77;;
16288;SDS011;26089;43.538;5.250;2022-10-31T04:30:19;17.90;;;9.87;;
16288;SDS011;26089;43.538;5.250;2022-10-31T04:32:46;17.47;;;9.37;;
16288;SDS011;26089;43.538;5.250;2022-10-31T04:35:13;13.80;;;8.87;;
16288;SDS011;26089;43.538;5.250;2022-10-31T04:37:42;14.67;;;8.07;;
16288;SDS011;26089;43.538;5.250;2022-10-31T04:40:10;15.33;;;8.23;;
16288;SDS011;26089;43.538;5.250;2022-10-31T04:42:37;14.53;;;8.33;;
16288;SDS011;26089;43.538;5.250;2022-10-31T04:45:04;15.77;;;7.87;;
16288;SDS011;26089;43.538;5.250;2022-10-31T04:47:32;14.27;;;9.00;;
16288;SDS011;26089;43.538;5.250;2022-10-31T04:49:59;19.43;;;8.30;;
16288;SDS011;26089;43.538;5.250;2022-10-31T04:52:27;19.87;;;8.80;;
16288;SDS011;26089;43.538;5.250;2022-10-31T04:54:55;14.93;;;9.07;;
16288;SDS011;26089;43.538;5.250;2022-10-31T04:57:22;14.77;;;8.77;;
16288;SDS011;26089;43.538;5.250;2022-10-31T04:59:49;13.43;;;7.83;;
16288;SDS011;26089;43.538;5.250;2022-10-31T05:02:16;16.27;;;9.03;;
16288;SDS011;26089;43.538;5.250;2022-10-31T05:04:43;12.77;;;7.97;;
16288;SDS011;26089;43.538;5.250;2022-10-31T05:07:10;13.20;;;7.97;;
16288;SDS011;26089;43.538;5.250;2022-10-31T05:09:37;18.43;;;7.70;;
16288;SDS011;26089;43.538;5.250;2022-10-31T05:12:06;14.70;;;8.47;;
16288;SDS011;26089;43.538;5.250;2022-10-31T05:14:33;18.70;;;8.40;;
16288;SDS011;26089;43.538;5.250;2022-10-31T05:17:00;13.10;;;7.77;;
16288;SDS011;26089;43.538;5.250;2022-10-31T05:19:27;11.60;;;7.50;;
16288;SDS011;26089;43.538;5.250;2022-10-31T05:21:54;17.40;;;8.30;;
16288;SDS011;26089;43.538;5.250;2022-10-31T05:24:21;11.13;;;7.70;;
16288;SDS011;26089;43.538;5.250;2022-10-31T05:26:48;15.43;;;8.03;;
16288;SDS011;26089;43.538;5.250;2022-10-31T05:29:17;20.20;;;8.23;;
16288;SDS011;26089;43.538;5.250;2022-10-31T05:31:44;16.27;;;8.43;;
16288;SDS011;26089;43.538;5.250;2022-10-31T05:34:10;13.73;;;7.80;;
16288;SDS011;26089;43.538;5.250;2022-10-31T05:36:37;16.43;;;8.33;;
16288;SDS011;26089;43.538;5.250;2022-10-31T05:39:04;15.67;;;8.53;;
16288;SDS011;26089;43.538;5.250;2022-10-31T05:41:31;11.13;;;7.67;;
16288;SDS011;26089;43.538;5.250;2022-10-31T05:43:58;12.17;;;8.07;;
16288;SDS011;26089;43.538;5.250;2022-10-31T05:46:27;10.80;;;8.07;;
16288;SDS011;26089;43.538;5.250;2022-10-31T05:48:54;14.00;;;8.00;;
16288;SDS011;26089;43.538;5.250;2022-10-31T05:51:21;16.90;;;8.33;;
16288;SDS011;26089;43.538;5.250;2022-10-31T05:53:48;16.77;;;8.07;;
16288;SDS011;26089;43.538;5.250;2022-10-31T05:56:15;16.10;;;7.80;;
16288;SDS011;26089;43.538;5.250;2022-10-31T05:58:42;15.53;;;7.50;;
16288;SDS011;26089;43.538;5.250;2022-10-31T06:01:09;14.10;;;7.70;;
16288;SDS011;26089;43.538;5.250;2022-10-31T06:03:38;10.47;;;6.97;;
16288;SDS011;26089;43.538;5.250;2022-10-31T06:06:05;11.77;;;7.93;;
16288;SDS011;26089;43.538;5.250;2022-10-31T06:08:32;18.33;;;7.50;;
16288;SDS011;26089;43.538;5.250;2022-10-31T06:10:59;14.97;;;7.87;;
16288;SDS011;26089;43.538;5.250;2022-10-31T06:13:26;15.10;;;8.63;;
16288;SDS011;26089;43.538;5.250;2022-10-31T06:15:53;12.30;;;7.90;;
16288;SDS011;26089;43.538;5.250;2022-10-31T06:18:20;12.93;;;7.67;;
16288;SDS011;26089;43.538;5.250;2022-10-31T06:20:48;17.40;;;8.53;;
16288;SDS011;26089;43.538;5.250;2022-10-31T06:23:16;11.73;;;8.63;;
16288;SDS011;26089;43.538;5.250;2022-10-31T06:25:43;17.80;;;9.50;;
16288;SDS011;26089;43.538;5.250;2022-10-31T06:28:14;11.40;;;7.80;;
16288;SDS011;26089;43.538;5.250;2022-10-31T06:30:41;12.27;;;7.80;;
16288;SDS011;26089;43.538;5.250;2022-10-31T06:33:08;15.07;;;8.40;;
16288;SDS011;26089;43.538;5.250;2022-10-31T06:35:35;13.07;;;8.40;;
16288;SDS011;26089;43.538;5.250;2022-10-31T06:38:03;13.50;;;8.23;;
16288;SDS011;26089;43.538;5.250;2022-10-31T06:40:30;17.03;;;8.13;;
16288;SDS011;26089;43.538;5.250;2022-10-31T06:42:58;17.40;;;9.53;;
16288;SDS011;26089;43.538;5.250;2022-10-31T06:45:25;16.37;;;8.50;;
16288;SDS011;26089;43.538;5.250;2022-10-31T06:47:52;16.20;;;8.53;;
16288;SDS011;26089;43.538;5.250;2022-10-31T06:50:20;13.70;;;8.80;;
16288;SDS011;26089;43.538;5.250;2022-10-31T06:52:50;16.83;;;8.60;;
16288;SDS011;26089;43.538;5.250;2022-10-31T06:55:19;17.80;;;8.50;;
16288;SDS011;26089;43.538;5.250;2022-10-31T06:57:50;15.53;;;8.30;;
16288;SDS011;26089;43.538;5.250;2022-10-31T07:00:17;18.27;;;8.47;;
16288;SDS011;26089;43.538;5.250;2022-10-31T07:02:52;16.67;;;10.20;;
16288;SDS011;26089;43.538;5.250;2022-10-31T07:05:19;13.80;;;9.07;;
16288;SDS011;26089;43.538;5.250;2022-10-31T07:07:46;16.37;;;9.90;;
16288;SDS011;26089;43.538;5.250;2022-10-31T07:10:13;16.53;;;10.47;;
16288;SDS011;26089;43.538;5.250;2022-10-31T07:12:42;16.13;;;9.00;;
16288;SDS011;26089;43.538;5.250;2022-10-31T07:15:09;13.60;;;8.23;;
16288;SDS011;26089;43.538;5.250;2022-10-31T07:17:36;16.67;;;9.03;;
16288;SDS011;26089;43.538;5.250;2022-10-31T07:20:03;14.10;;;8.17;;
16288;SDS011;26089;43.538;5.250;2022-10-31T07:22:32;16.93;;;8.37;;
16288;SDS011;26089;43.538;5.250;2022-10-31T07:24:59;14.83;;;8.97;;
16288;SDS011;26089;43.538;5.250;2022-10-31T07:27:27;14.83;;;8.40;;
16288;SDS011;26089;43.538;5.250;2022-10-31T07:29:55;14.00;;;8.73;;
16288;SDS011;26089;43.538;5.250;2022-10-31T07:32:22;15.20;;;8.03;;
16288;SDS011;26089;43.538;5.250;2022-10-31T07:34:49;14.23;;;8.30;;
16288;SDS011;26089;43.538;5.250;2022-10-31T07:37:16;15.20;;;8.67;;
16288;SDS011;26089;43.538;5.250;2022-10-31T07:39:43;16.47;;;8.67;;
16288;SDS011;26089;43.538;5.250;2022-10-31T07:42:10;15.43;;;8.10;;
16288;SDS011;26089;43.538;5.250;2022-10-31T07:44:37;14.93;;;8.50;;
16288;SDS011;26089;43.538;5.250;2022-10-31T07:47:05;12.13;;;7.57;;
16288;SDS011;26089;43.538;5.250;2022-10-31T07:49:32;15.90;;;7.87;;
16288;SDS011;26089;43.538;5.250;2022-10-31T07:51:59;15.27;;;8.17;;
16288;SDS011;26089;43.538;5.250;2022-10-31T07:54:26;17.13;;;7.80;;
16288;SDS011;26089;43.538;5.250;2022-10-31T07:56:53;23.40;;;8.07;;
16288;SDS011;26089;43.538;5.250;2022-10-31T07:59:20;17.10;;;7.67;;
16288;SDS011;26089;43.538;5.250;2022-10-31T08:01:47;12.37;;;7.23;;
16288;SDS011;26089;43.538;5.250;2022-10-31T08:04:16;15.53;;;7.27;;
16288;SDS011;26089;43.538;5.250;2022-10-31T08:06:43;12.50;;;7.57;;
16288;SDS011;26089;43.538;5.250;2022-10-31T08:09:10;13.47;;;7.67;;
16288;SDS011;26089;43.538;5.250;2022-10-31T08:11:37;11.83;;;6.83;;
16288;SDS011;26089;43.538;5.250;2022-10-31T08:14:04;17.73;;;6.57;;
16288;SDS011;26089;43.538;5.250;2022-10-31T08:16:31;11.30;;;6.40;;
16288;SDS011;26089;43.538;5.250;2022-10-31T08:18:58;14.23;;;7.57;;
16288;SDS011;26089;43.538;5.250;2022-10-31T08:21:26;13.30;;;6.20;;
16288;SDS011;26089;43.538;5.250;2022-10-31T08:23:53;9.40;;;6.20;;
16288;SDS011;26089;43.538;5.250;2022-10-31T08:26:20;10.07;;;5.83;;
16288;SDS011;26089;43.538;5.250;2022-10-31T08:28:47;14.13;;;6.60;;
16288;SDS011;26089;43.538;5.250;2022-10-31T08:31:15;15.10;;;6.27;;
16288;SDS011;26089;43.538;5.250;2022-10-31T08:33:42;16.83;;;7.27;;
16288;SDS011;26089;43.538;5.250;2022-10-31T08:36:09;13.27;;;6.40;;
16288;SDS011;26089;43.538;5.250;2022-10-31T08:38:37;13.60;;;6.90;;
16288;SDS011;26089;43.538;5.250;2022-10-31T08:41:04;15.27;;;7.47;;
16288;SDS011;26089;43.538;5.250;2022-10-31T08:43:31;13.33;;;7.27;;
16288;SDS011;26089;43.538;5.250;2022-10-31T08:45:58;13.40;;;6.60;;
16288;SDS011;26089;43.538;5.250;2022-10-31T08:48:25;15.17;;;6.97;;
16288;SDS011;26089;43.538;5.250;2022-10-31T08:50:55;13.80;;;7.20;;
16288;SDS011;26089;43.538;5.250;2022-10-31T08:53:24;13.67;;;6.97;;
16288;SDS011;26089;43.538;5.250;2022-10-31T08:55:53;15.67;;;6.80;;
16288;SDS011;26089;43.538;5.250;2022-10-31T08:58:21;13.27;;;6.93;;
16288;SDS011;26089;43.538;5.250;2022-10-31T09:00:50;15.67;;;7.27;;
16288;SDS011;26089;43.538;5.250;2022-10-31T09:03:20;12.90;;;7.00;;
16288;SDS011;26089;43.538;5.250;2022-10-31T09:05:48;19.60;;;7.50;;
16288;SDS011;26089;43.538;5.250;2022-10-31T09:08:16;14.93;;;6.63;;
16288;SDS011;26089;43.538;5.250;2022-10-31T09:10:43;21.90;;;6.87;;
16288;SDS011;26089;43.538;5.250;2022-10-31T09:13:12;12.60;;;7.77;;
16288;SDS011;26089;43.538;5.250;2022-10-31T09:15:42;15.57;;;6.67;;
16288;SDS011;26089;43.538;5.250;2022-10-31T09:18:10;14.87;;;7.37;;
16288;SDS011;26089;43.538;5.250;2022-10-31T09:20:38;18.07;;;6.37;;
16288;SDS011;26089;43.538;5.250;2022-10-31T09:23:08;12.67;;;6.40;;
16288;SDS011;26089;43.538;5.250;2022-10-31T09:25:36;16.60;;;6.53;;
16288;SDS011;26089;43.538;5.250;2022-10-31T09:28:04;10.90;;;6.60;;
16288;SDS011;26089;43.538;5.250;2022-10-31T09:30:34;15.60;;;6.47;;
16288;SDS011;26089;43.538;5.250;2022-10-31T09:33:02;14.73;;;6.60;;
16288;SDS011;26089;43.538;5.250;2022-10-31T09:35:30;13.00;;;6.87;;
16288;SDS011;26089;43.538;5.250;2022-10-31T09:37:58;15.33;;;6.87;;
16288;SDS011;26089;43.538;5.250;2022-10-31T09:40:32;16.03;;;6.80;;
16288;SDS011;26089;43.538;5.250;2022-10-31T09:43:04;16.93;;;7.10;;
16288;SDS011;26089;43.538;5.250;2022-10-31T09:45:41;15.37;;;7.67;;
16288;SDS011;26089;43.538;5.250;2022-10-31T09:48:17;15.70;;;7.37;;
16288;SDS011;26089;43.538;5.250;2022-10-31T09:50:52;14.53;;;6.93;;
16288;SDS011;26089;43.538;5.250;2022-10-31T09:53:26;16.93;;;7.47;;
16288;SDS011;26089;43.538;5.250;2022-10-31T09:56:00;13.07;;;6.60;;
16288;SDS011;26089;43.538;5.250;2022-10-31T09:58:29;16.13;;;7.07;;
16288;SDS011;26089;43.538;5.250;2022-10-31T10:01:00;14.00;;;6.10;;
16288;SDS011;26089;43.538;5.250;2022-10-31T10:03:31;14.83;;;7.47;;
16288;SDS011;26089;43.538;5.250;2022-10-31T10:06:04;15.37;;;6.93;;
16288;SDS011;26089;43.538;5.250;2022-10-31T10:08:38;14.43;;;7.10;;
16288;SDS011;26089;43.538;5.250;2022-10-31T10:11:08;20.10;;;6.70;;
16288;SDS011;26089;43.538;5.250;2022-10-31T10:14:09;20.17;;;7.40;;
16288;SDS011;26089;43.538;5.250;2022-10-31T10:16:59;17.23;;;6.63;;
16288;SDS011;26089;43.538;5.250;2022-10-31T10:19:41;17.70;;;7.47;;
16288;SDS011;26089;43.538;5.250;2022-10-31T10:22:18;16.53;;;7.37;;
16288;SDS011;26089;43.538;5.250;2022-10-31T10:24:57;18.50;;;7.20;;
16288;SDS011;26089;43.538;5.250;2022-10-31T10:27:37;16.00;;;6.73;;
16288;SDS011;26089;43.538;5.250;2022-10-31T10:30:13;11.83;;;6.40;;
16288;SDS011;26089;43.538;5.250;2022-10-31T10:32:45;13.80;;;5.90;;
16288;SDS011;26089;43.538;5.250;2022-10-31T10:35:19;17.63;;;6.57;;
16288;SDS011;26089;43.538;5.250;2022-10-31T10:37:49;13.97;;;6.43;;
16288;SDS011;26089;43.538;5.250;2022-10-31T10:40:19;13.03;;;6.10;;
16288;SDS011;26089;43.538;5.250;2022-10-31T10:42:55;16.17;;;6.10;;
16288;SDS011;26089;43.538;5.250;2022-10-31T10:45:49;11.33;;;6.70;;
16288;SDS011;26089;43.538;5.250;2022-10-31T10:48:41;11.40;;;5.50;;
16288;SDS011;26089;43.538;5.250;2022-10-31T10:51:17;18.53;;;6.67;;
16288;SDS011;26089;43.538;5.250;2022-10-31T10:53:51;15.30;;;6.30;;
16288;SDS011;26089;43.538;5.250;2022-10-31T10:56:35;14.30;;;5.63;;
16288;SDS011;26089;43.538;5.250;2022-10-31T10:59:08;14.03;;;5.33;;
16288;SDS011;26089;43.538;5.250;2022-10-31T11:01:38;12.97;;;5.23;;
16288;SDS011;26089;43.538;5.250;2022-10-31T11:04:23;18.50;;;6.33;;
16288;SDS011;26089;43.538;5.250;2022-10-31T11:06:57;16.80;;;5.43;;
16288;SDS011;26089;43.538;5.250;2022-10-31T11:09:28;20.60;;;5.73;;
16288;SDS011;26089;43.538;5.250;2022-10-31T11:11:55;11.40;;;5.50;;
16288;SDS011;26089;43.538;5.250;2022-10-31T11:14:23;16.27;;;4.93;;
16288;SDS011;26089;43.538;5.250;2022-10-31T11:16:54;12.47;;;5.27;;
16288;SDS011;26089;43.538;5.250;2022-10-31T11:19:34;14.20;;;5.40;;
16288;SDS011;26089;43.538;5.250;2022-10-31T11:22:05;10.60;;;5.00;;
16288;SDS011;26089;43.538;5.250;2022-10-31T11:24:36;18.83;;;5.70;;
16288;SDS011;26089;43.538;5.250;2022-10-31T11:27:11;16.67;;;5.40;;
16288;SDS011;26089;43.538;5.250;2022-10-31T11:29:41;15.87;;;5.13;;
16288;SDS011;26089;43.538;5.250;2022-10-31T11:32:17;11.03;;;5.17;;
16288;SDS011;26089;43.538;5.250;2022-10-31T11:34:48;17.07;;;5.97;;
16288;SDS011;26089;43.538;5.250;2022-10-31T11:37:19;19.40;;;6.07;;
16288;SDS011;26089;43.538;5.250;2022-10-31T11:39:49;16.50;;;6.00;;
16288;SDS011;26089;43.538;5.250;2022-10-31T11:42:20;16.77;;;5.80;;
16288;SDS011;26089;43.538;5.250;2022-10-31T11:44:49;14.23;;;6.27;;
16288;SDS011;26089;43.538;5.250;2022-10-31T11:47:20;11.20;;;5.67;;
16288;SDS011;26089;43.538;5.250;2022-10-31T11:49:54;15.80;;;5.13;;
16288;SDS011;26089;43.538;5.250;2022-10-31T11:52:23;14.67;;;5.17;;
16288;SDS011;26089;43.538;5.250;2022-10-31T11:54:53;14.20;;;5.57;;
16288;SDS011;26089;43.538;5.250;2022-10-31T11:57:22;12.80;;;5.03;;
16288;SDS011;26089;43.538;5.250;2022-10-31T11:59:53;13.93;;;5.43;;
16288;SDS011;26089;43.538;5.250;2022-10-31T12:02:23;12.83;;;4.97;;
16288;SDS011;26089;43.538;5.250;2022-10-31T12:04:53;14.10;;;4.93;;
16288;SDS011;26089;43.538;5.250;2022-10-31T12:07:28;19.20;;;4.90;;
16288;SDS011;26089;43.538;5.250;2022-10-31T12:09:56;18.77;;;5.47;;
16288;SDS011;26089;43.538;5.250;2022-10-31T12:15:31;18.70;;;4.93;;
16288;SDS011;26089;43.538;5.250;2022-10-31T12:20:54;13.60;;;4.97;;
16288;SDS011;26089;43.538;5.250;2022-10-31T12:23:33;11.33;;;4.43;;
16288;SDS011;26089;43.538;5.250;2022-10-31T12:26:12;10.27;;;4.20;;
16288;SDS011;26089;43.538;5.250;2022-10-31T12:28:48;13.00;;;5.00;;
16288;SDS011;26089;43.538;5.250;2022-10-31T12:34:25;15.37;;;4.80;;
16288;SDS011;26089;43.538;5.250;2022-10-31T12:37:23;17.30;;;4.35;;
16288;SDS011;26089;43.538;5.250;2022-10-31T12:40:01;14.15;;;4.40;;
16288;SDS011;26089;43.538;5.250;2022-10-31T12:42:43;15.43;;;4.75;;
16288;SDS011;26089;43.538;5.250;2022-10-31T12:45:28;12.90;;;5.22;;
16288;SDS011;26089;43.538;5.250;2022-10-31T12:48:10;12.93;;;4.47;;
16288;SDS011;26089;43.538;5.250;2022-10-31T12:50:50;11.27;;;4.17;;
16288;SDS011;26089;43.538;5.250;2022-10-31T12:53:32;14.48;;;5.18;;
16288;SDS011;26089;43.538;5.250;2022-10-31T12:56:12;12.63;;;4.63;;
16288;SDS011;26089;43.538;5.250;2022-10-31T12:58:47;14.60;;;4.82;;
16288;SDS011;26089;43.538;5.250;2022-10-31T13:01:20;11.55;;;4.72;;
16288;SDS011;26089;43.538;5.250;2022-10-31T13:03:55;11.52;;;4.55;;
16288;SDS011;26089;43.538;5.250;2022-10-31T13:06:28;15.77;;;4.82;;
16288;SDS011;26089;43.538;5.250;2022-10-31T13:09:00;13.32;;;5.22;;
16288;SDS011;26089;43.538;5.250;2022-10-31T13:11:33;16.17;;;4.97;;
16288;SDS011;26089;43.538;5.250;2022-10-31T13:14:05;13.52;;;4.50;;
16288;SDS011;26089;43.538;5.250;2022-10-31T13:16:38;12.52;;;4.47;;
16288;SDS011;26089;43.538;5.250;2022-10-31T13:19:09;12.07;;;4.10;;
16288;SDS011;26089;43.538;5.250;2022-10-31T13:21:44;16.90;;;4.65;;
16288;SDS011;26089;43.538;5.250;2022-10-31T13:24:22;15.38;;;4.72;;
16288;SDS011;26089;43.538;5.250;2022-10-31T13:27:02;14.25;;;4.65;;
16288;SDS011;26089;43.538;5.250;2022-10-31T13:29:38;11.60;;;4.47;;
16288;SDS011;26089;43.538;5.250;2022-10-31T13:32:09;12.55;;;4.30;;
16288;SDS011;26089;43.538;5.250;2022-10-31T13:34:37;13.30;;;4.43;;
16288;SDS011;26089;43.538;5.250;2022-10-31T13:37:11;20.83;;;4.70;;
16288;SDS011;26089;43.538;5.250;2022-10-31T13:39:50;16.92;;;4.15;;
16288;SDS011;26089;43.538;5.250;2022-10-31T13:42:36;13.00;;;4.30;;
16288;SDS011;26089;43.538;5.250;2022-10-31T13:45:12;17.37;;;4.67;;
16288;SDS011;26089;43.538;5.250;2022-10-31T13:47:40;11.80;;;4.63;;
16288;SDS011;26089;43.538;5.250;2022-10-31T13:50:18;11.83;;;4.27;;
16288;SDS011;26089;43.538;5.250;2022-10-31T13:52:47;9.07;;;3.83;;
16288;SDS011;26089;43.538;5.250;2022-10-31T13:58:19;14.80;;;5.00;;
16288;SDS011;26089;43.538;5.250;2022-10-31T14:00:58;13.10;;;4.97;;
16288;SDS011;26089;43.538;5.250;2022-10-31T14:03:39;19.23;;;4.90;;
16288;SDS011;26089;43.538;5.250;2022-10-31T14:06:08;13.83;;;4.53;;
16288;SDS011;26089;43.538;5.250;2022-10-31T14:08:37;12.80;;;4.57;;
16288;SDS011;26089;43.538;5.250;2022-10-31T14:11:09;14.97;;;4.77;;
16288;SDS011;26089;43.538;5.250;2022-10-31T14:13:47;12.97;;;4.60;;
16288;SDS011;26089;43.538;5.250;2022-10-31T14:16:17;11.40;;;5.03;;
16288;SDS011;26089;43.538;5.250;2022-10-31T14:18:48;14.70;;;5.23;;
16288;SDS011;26089;43.538;5.250;2022-10-31T14:21:29;15.60;;;4.67;;
16288;SDS011;26089;43.538;5.250;2022-10-31T14:23:57;12.57;;;4.93;;
16288;SDS011;26089;43.538;5.250;2022-10-31T14:26:33;16.23;;;5.53;;
16288;SDS011;26089;43.538;5.250;2022-10-31T14:29:04;12.23;;;4.83;;
16288;SDS011;26089;43.538;5.250;2022-10-31T14:31:52;14.80;;;4.83;;
16288;SDS011;26089;43.538;5.250;2022-10-31T14:34:33;13.67;;;5.30;;
16288;SDS011;26089;43.538;5.250;2022-10-31T14:37:06;13.07;;;5.37;;
16288;SDS011;26089;43.538;5.250;2022-10-31T14:39:57;16.20;;;5.77;;
16288;SDS011;26089;43.538;5.250;2022-10-31T14:42:41;15.37;;;4.93;;
16288;SDS011;26089;43.538;5.250;2022-10-31T14:45:25;12.20;;;5.10;;
16288;SDS011;26089;43.538;5.250;2022-10-31T14:48:02;12.57;;;5.27;;
16288;SDS011;26089;43.538;5.250;2022-10-31T14:50:41;14.63;;;5.00;;
16288;SDS011;26089;43.538;5.250;2022-10-31T14:53:14;13.80;;;5.73;;
16288;SDS011;26089;43.538;5.250;2022-10-31T14:55:47;15.67;;;5.60;;
16288;SDS011;26089;43.538;5.250;2022-10-31T14:58:19;15.80;;;5.90;;
16288;SDS011;26089;43.538;5.250;2022-10-31T15:00:49;10.93;;;4.77;;
16288;SDS011;26089;43.538;5.250;2022-10-31T15:03:21;13.57;;;5.10;;
16288;SDS011;26089;43.538;5.250;2022-10-31T15:05:53;17.03;;;5.27;;
16288;SDS011;26089;43.538;5.250;2022-10-31T15:08:31;16.73;;;5.97;;
16288;SDS011;26089;43.538;5.250;2022-10-31T15:11:02;13.70;;;5.27;;
16288;SDS011;26089;43.538;5.250;2022-10-31T15:13:42;16.37;;;5.77;;